createdAt,value
2017-11-28T00:01:06.842Z,99508.62
2017-11-28T00:03:35.529Z,99513.39
2017-11-28T00:06:04.221Z,99515.94
2017-11-28T00:08:32.584Z,99511.25
2017-11-28T00:11:00.986Z,99515.41
2017-11-28T00:13:29.370Z,99512.48
2017-11-28T00:15:57.777Z,99510.38
2017-11-28T00:18:26.479Z,99504.95
2017-11-28T00:20:54.861Z,99506.59
2017-11-28T00:23:26.388Z,99510.05
2017-11-28T00:25:54.627Z,99507.95
2017-11-28T00:28:23.040Z,99502.03
2017-11-28T00:30:51.718Z,99508.37
2017-11-28T00:33:24.059Z,99505.41
2017-11-28T00:35:52.792Z,99498.21
2017-11-28T00:38:21.260Z,99495.29
2017-11-28T00:40:49.682Z,99498.70
2017-11-28T00:43:22.312Z,99495.46
2017-11-28T00:45:50.634Z,99494.59
2017-11-28T00:48:19.338Z,99490.77
2017-11-28T00:50:47.755Z,99494.11
2017-11-28T00:53:16.162Z,99487.85
2017-11-28T00:55:44.561Z,99483.70
2017-11-28T00:58:12.969Z,99492.58
2017-11-28T01:00:41.424Z,99491.34
2017-11-28T01:03:10.211Z,99476.50
2017-11-28T01:05:38.577Z,99486.78
2017-11-28T01:08:06.917Z,99486.48
2017-11-28T01:10:35.645Z,99484.40
2017-11-28T01:13:04.399Z,99490.81
2017-11-28T01:15:32.785Z,99493.48
2017-11-28T01:18:01.149Z,99490.48
2017-11-28T01:20:29.573Z,99488.05
2017-11-28T01:22:57.980Z,99482.54
2017-11-28T01:25:26.402Z,99483.41
2017-11-28T01:27:55.152Z,99492.89
2017-11-28T01:30:23.618Z,99485.37
2017-11-28T01:32:52.059Z,99484.95
2017-11-28T01:35:20.221Z,99479.41
2017-11-28T01:37:48.672Z,99482.78
2017-11-28T01:40:16.901Z,99479.86
2017-11-28T01:42:45.623Z,99478.13
2017-11-28T01:45:14.118Z,99476.86
2017-11-28T01:47:42.561Z,99479.45
2017-11-28T01:50:14.064Z,99474.06
2017-11-28T01:52:43.941Z,99478.75
2017-11-28T01:55:12.354Z,99481.27
2017-11-28T01:57:40.723Z,99480.14
2017-11-28T02:00:09.208Z,99479.32
2017-11-28T02:02:37.601Z,99465.76
2017-11-28T02:05:06.902Z,99471.27
2017-11-28T02:07:35.168Z,99479.06
2017-11-28T02:10:03.465Z,99462.51
2017-11-28T02:12:31.813Z,99462.09
2017-11-28T02:15:00.245Z,99452.98
2017-11-28T02:17:28.807Z,99451.53
2017-11-28T02:19:57.454Z,99459.67
2017-11-28T02:22:25.764Z,99457.70
2017-11-28T02:24:53.822Z,99450.50
2017-11-28T02:27:22.245Z,99444.95
2017-11-28T02:29:50.670Z,99453.46
2017-11-28T02:32:19.160Z,99449.34
2017-11-28T02:34:47.525Z,99445.11
2017-11-28T02:37:16.010Z,99445.98
2017-11-28T02:39:44.475Z,99448.53
2017-11-28T02:42:13.137Z,99450.34
2017-11-28T02:44:41.567Z,99452.03
2017-11-28T02:47:09.990Z,99445.45
2017-11-28T02:49:49.016Z,99443.77
2017-11-28T02:52:17.437Z,99455.23
2017-11-28T02:54:58.437Z,99449.02
2017-11-28T02:57:28.449Z,99438.45
2017-11-28T02:59:59.728Z,99445.64
2017-11-28T03:02:28.217Z,99446.21
2017-11-28T03:04:56.654Z,99444.08
2017-11-28T03:07:28.661Z,99439.85
2017-11-28T03:09:57.746Z,99441.81
2017-11-28T03:12:29.386Z,99435.37
2017-11-28T03:15:05.046Z,99432.08
2017-11-28T03:17:33.465Z,99432.41
2017-11-28T03:20:05.304Z,99424.77
2017-11-28T03:22:36.431Z,99426.08
2017-11-28T03:28:15.533Z,99410.55
2017-11-28T03:30:46.486Z,99417.69
2017-11-28T03:33:14.932Z,99418.27
2017-11-28T03:35:47.362Z,99399.16
2017-11-28T03:38:15.921Z,99392.19
2017-11-28T03:40:44.330Z,99403.31
2017-11-28T03:43:12.807Z,99403.69
2017-11-28T03:48:38.298Z,99392.84
2017-11-28T03:51:06.530Z,99399.61
2017-11-28T03:53:35.165Z,99397.48
2017-11-28T03:56:03.582Z,99400.39
2017-11-28T03:58:32.074Z,99391.15
2017-11-28T04:01:00.536Z,99380.96
2017-11-28T04:03:28.953Z,99375.09
2017-11-28T04:05:57.417Z,99370.38
2017-11-28T04:08:25.863Z,99364.05
2017-11-28T04:10:54.282Z,99367.00
2017-11-28T04:13:25.440Z,99356.16
2017-11-28T04:15:53.815Z,99371.77
2017-11-28T04:18:22.233Z,99355.25
2017-11-28T04:20:50.640Z,99349.79
2017-11-28T04:23:22.547Z,99345.06
2017-11-28T04:25:51.028Z,99349.79
2017-11-28T04:28:19.571Z,99346.88
2017-11-28T04:30:48.079Z,99335.45
2017-11-28T04:33:16.552Z,99340.09
2017-11-28T04:35:45.140Z,99328.34
2017-11-28T04:38:13.582Z,99331.63
2017-11-28T04:40:42.027Z,99336.73
2017-11-28T04:43:10.458Z,99319.02
2017-11-28T04:45:38.907Z,99306.38
2017-11-28T04:48:07.349Z,99311.05
2017-11-28T04:50:35.799Z,99304.77
2017-11-28T04:53:04.195Z,99311.97
2017-11-28T04:55:32.632Z,99295.53
2017-11-28T04:58:01.051Z,99290.77
2017-11-28T05:00:29.452Z,99289.63
2017-11-28T05:02:57.826Z,99291.02
2017-11-28T05:05:26.276Z,99298.20
2017-11-28T05:07:54.612Z,99284.28
2017-11-28T05:10:23.007Z,99281.36
2017-11-28T05:12:52.091Z,99296.39
2017-11-28T05:15:20.495Z,99295.16
2017-11-28T05:17:49.201Z,99294.83
2017-11-28T05:20:19.151Z,99290.19
2017-11-28T05:22:47.547Z,99296.10
2017-11-28T05:25:16.116Z,99294.17
2017-11-28T05:27:44.857Z,99286.16
2017-11-28T05:30:13.214Z,99293.06
2017-11-28T05:32:41.624Z,99284.93
2017-11-28T05:35:10.005Z,99292.19
2017-11-28T05:37:38.401Z,99293.96
2017-11-28T05:40:06.832Z,99304.67
2017-11-28T05:42:34.959Z,99304.22
2017-11-28T05:45:03.424Z,99302.91
2017-11-28T05:47:31.890Z,99303.23
2017-11-28T05:50:00.289Z,99290.55
2017-11-28T05:52:28.789Z,99293.92
2017-11-28T05:54:57.191Z,99285.79
2017-11-28T05:57:25.660Z,99291.33
2017-11-28T05:59:54.080Z,99281.56
2017-11-28T06:02:22.541Z,99302.59
2017-11-28T06:04:50.957Z,99291.13
2017-11-28T06:07:19.351Z,99286.95
2017-11-28T06:09:47.844Z,99285.14
2017-11-28T06:12:16.271Z,99285.06
2017-11-28T06:14:44.644Z,99284.69
2017-11-28T06:17:13.067Z,99277.87
2017-11-28T06:19:41.686Z,99275.25
2017-11-28T06:22:10.147Z,99276.35
2017-11-28T06:24:38.575Z,99270.81
2017-11-28T06:27:07.037Z,99277.63
2017-11-28T06:29:35.354Z,99278.03
2017-11-28T06:32:03.747Z,99279.27
2017-11-28T06:34:32.479Z,99277.46
2017-11-28T06:37:00.920Z,99277.80
2017-11-28T06:39:34.663Z,99271.84
2017-11-28T06:42:02.928Z,99275.63
2017-11-28T06:44:31.055Z,99277.30
2017-11-28T06:46:59.235Z,99279.40
2017-11-28T06:49:27.413Z,99295.95
2017-11-28T06:51:55.833Z,99294.55
2017-11-28T06:54:24.281Z,99292.91
2017-11-28T06:57:01.136Z,99310.64
2017-11-28T06:59:29.569Z,99305.56
2017-11-28T07:01:57.975Z,99300.45
2017-11-28T07:04:26.427Z,99315.20
2017-11-28T07:06:54.941Z,99313.89
2017-11-28T07:09:23.271Z,99306.66
2017-11-28T07:11:51.444Z,99303.66
2017-11-28T07:14:19.887Z,99302.35
2017-11-28T07:16:48.260Z,99311.59
2017-11-28T07:19:16.673Z,99313.23
2017-11-28T07:21:45.003Z,99315.78
2017-11-28T07:24:13.711Z,99313.73
2017-11-28T07:26:42.049Z,99311.92
2017-11-28T07:29:10.474Z,99316.61
2017-11-28T07:31:38.840Z,99318.66
2017-11-28T07:34:07.251Z,99313.61
2017-11-28T07:36:35.631Z,99316.03
2017-11-28T07:39:03.842Z,99310.93
2017-11-28T07:41:32.227Z,99312.66
2017-11-28T07:44:00.694Z,99307.52
2017-11-28T07:46:29.098Z,99321.03
2017-11-28T07:48:57.572Z,99320.59
2017-11-28T07:51:25.994Z,99327.70
2017-11-28T07:53:54.450Z,99334.47
2017-11-28T07:56:22.784Z,99328.92
2017-11-28T07:58:51.144Z,99329.70
2017-11-28T08:01:19.634Z,99338.58
2017-11-28T08:03:47.974Z,99328.80
2017-11-28T08:06:16.428Z,99342.81
2017-11-28T08:08:44.747Z,99331.27
2017-11-28T08:11:13.124Z,99337.55
2017-11-28T08:13:41.496Z,99341.79
2017-11-28T08:16:09.850Z,99333.28
2017-11-28T08:18:38.535Z,99342.16
2017-11-28T08:21:06.829Z,99351.48
2017-11-28T08:23:35.373Z,99340.09
2017-11-28T08:26:03.939Z,99331.52
2017-11-28T08:28:32.115Z,99342.81
2017-11-28T08:31:00.459Z,99344.13
2017-11-28T08:33:28.651Z,99345.31
2017-11-28T08:35:56.906Z,99342.94
2017-11-28T08:38:25.175Z,99340.22
2017-11-28T08:40:53.534Z,99340.52
2017-11-28T08:43:24.055Z,99337.64
2017-11-28T08:45:52.093Z,99334.55
2017-11-28T08:48:20.387Z,99341.74
2017-11-28T08:50:48.712Z,99342.23
2017-11-28T08:53:17.124Z,99348.85
2017-11-28T08:55:45.486Z,99351.31
2017-11-28T08:58:13.892Z,99334.70
2017-11-28T09:00:42.016Z,99338.52
2017-11-28T09:03:10.395Z,99344.69
2017-11-28T09:05:38.815Z,99337.98
2017-11-28T09:08:07.184Z,99337.95
2017-11-28T09:10:35.632Z,99331.98
2017-11-28T09:13:04.064Z,99328.91
2017-11-28T09:15:32.475Z,99337.29
2017-11-28T09:18:00.917Z,99324.13
2017-11-28T09:20:29.256Z,99326.22
2017-11-28T09:22:57.597Z,99327.83
2017-11-28T09:25:25.983Z,99334.98
2017-11-28T09:27:54.316Z,99331.89
2017-11-28T09:30:22.730Z,99338.27
2017-11-28T09:32:51.095Z,99329.96
2017-11-28T09:35:19.430Z,99328.55
2017-11-28T09:37:47.903Z,99325.05
2017-11-28T09:40:16.259Z,99324.06
2017-11-28T09:42:44.907Z,99328.30
2017-11-28T09:45:13.301Z,99326.90
2017-11-28T09:47:41.660Z,99324.68
2017-11-28T09:50:10.046Z,99321.21
2017-11-28T09:52:38.416Z,99308.42
2017-11-28T09:55:07.097Z,99318.05
2017-11-28T09:57:35.790Z,99309.94
2017-11-28T10:00:04.121Z,99316.69
2017-11-28T10:02:32.784Z,99310.31
2017-11-28T10:05:01.499Z,99322.11
2017-11-28T10:07:29.833Z,99319.43
2017-11-28T10:09:58.544Z,99314.42
2017-11-28T10:12:27.196Z,99320.75
2017-11-28T10:14:55.872Z,99321.88
2017-11-28T10:17:24.227Z,99324.39
2017-11-28T10:19:52.908Z,99328.13
2017-11-28T10:22:21.248Z,99340.38
2017-11-28T10:24:49.631Z,99330.14
2017-11-28T10:27:18.352Z,99333.02
2017-11-28T10:29:46.679Z,99336.39
2017-11-28T10:32:15.222Z,99341.53
2017-11-28T10:34:43.939Z,99339.93
2017-11-28T10:37:12.262Z,99335.16
2017-11-28T10:39:40.986Z,99335.98
2017-11-28T10:42:09.776Z,99343.55
2017-11-28T10:44:38.459Z,99343.13
2017-11-28T10:47:06.855Z,99352.51
2017-11-28T10:49:36.017Z,99348.27
2017-11-28T10:52:04.389Z,99343.99
2017-11-28T10:54:33.050Z,99350.23
2017-11-28T10:57:01.414Z,99357.06
2017-11-28T10:59:29.779Z,99347.31
2017-11-28T11:01:58.683Z,99354.61
2017-11-28T11:04:27.103Z,99347.82
2017-11-28T11:06:55.758Z,99353.45
2017-11-28T11:09:24.456Z,99358.92
2017-11-28T11:11:53.209Z,99359.34
2017-11-28T11:14:21.569Z,99352.09
2017-11-28T11:16:50.287Z,99351.32
2017-11-28T11:19:18.949Z,99353.74
2017-11-28T11:21:47.869Z,99358.02
2017-11-28T11:24:16.527Z,99359.30
2017-11-28T11:26:44.895Z,99359.79
2017-11-28T11:29:13.575Z,99361.52
2017-11-28T11:31:42.041Z,99360.61
2017-11-28T11:34:10.385Z,99363.61
2017-11-28T11:36:38.755Z,99363.61
2017-11-28T11:39:07.184Z,99369.66
2017-11-28T11:41:35.511Z,99367.48
2017-11-28T11:44:03.842Z,99364.02
2017-11-28T11:46:32.208Z,99363.66
2017-11-28T11:49:00.531Z,99361.89
2017-11-28T11:51:28.915Z,99361.11
2017-11-28T11:53:57.615Z,99357.16
2017-11-28T11:56:26.351Z,99360.89
2017-11-28T11:58:54.740Z,99361.70
2017-11-28T12:01:23.419Z,99365.03
2017-11-28T12:03:52.089Z,99364.58
2017-11-28T12:06:20.476Z,99367.91
2017-11-28T12:08:48.840Z,99357.71
2017-11-28T12:11:17.080Z,99360.67
2017-11-28T12:13:45.419Z,99360.78
2017-11-28T12:16:13.788Z,99354.73
2017-11-28T12:18:42.016Z,99362.83
2017-11-28T12:21:10.476Z,99365.42
2017-11-28T12:23:39.042Z,99362.74
2017-11-28T12:26:07.314Z,99363.20
2017-11-28T12:28:35.935Z,99369.90
2017-11-28T12:31:04.685Z,99375.73
2017-11-28T12:33:32.924Z,99380.84
2017-11-28T12:36:01.662Z,99379.06
2017-11-28T12:38:30.043Z,99376.14
2017-11-28T12:40:58.402Z,99383.67
2017-11-28T12:43:28.287Z,99386.72
2017-11-28T12:45:56.681Z,99384.49
2017-11-28T12:48:25.063Z,99388.23
2017-11-28T12:50:53.457Z,99389.09
2017-11-28T12:53:26.086Z,99388.23
2017-11-28T12:55:54.447Z,99392.41
2017-11-28T12:58:22.790Z,99375.87
2017-11-28T13:00:51.485Z,99386.00
2017-11-28T13:03:25.851Z,99383.90
2017-11-28T13:05:54.467Z,99390.32
2017-11-28T13:08:22.849Z,99395.25
2017-11-28T13:10:51.182Z,99396.07
2017-11-28T13:13:22.766Z,99391.42
2017-11-28T13:15:51.483Z,99401.58
2017-11-28T13:18:19.873Z,99401.91
2017-11-28T13:20:48.175Z,99407.37
2017-11-28T13:23:18.560Z,99406.02
2017-11-28T13:25:47.112Z,99402.23
2017-11-28T13:28:15.468Z,99408.88
2017-11-28T13:30:43.797Z,99403.70
2017-11-28T13:33:12.296Z,99411.39
2017-11-28T13:35:40.631Z,99411.39
2017-11-28T13:38:09.045Z,99420.23
2017-11-28T13:40:37.429Z,99410.86
2017-11-28T13:43:06.076Z,99409.17
2017-11-28T13:45:34.734Z,99411.80
2017-11-28T13:48:03.108Z,99413.81
2017-11-28T13:50:31.809Z,99415.91
2017-11-28T13:53:00.546Z,99425.67
2017-11-28T13:55:28.859Z,99429.08
2017-11-28T13:57:57.559Z,99433.73
2017-11-28T14:00:25.979Z,99439.66
2017-11-28T14:02:54.640Z,99446.48
2017-11-28T14:05:23.010Z,99440.65
2017-11-28T14:07:51.683Z,99442.70
2017-11-28T14:10:20.380Z,99442.30
2017-11-28T14:12:49.065Z,99447.81
2017-11-28T14:15:17.587Z,99454.68
2017-11-28T14:17:45.818Z,99443.28
2017-11-28T14:20:19.680Z,99450.13
2017-11-28T14:22:53.376Z,99456.09
2017-11-28T14:25:27.178Z,99454.36
2017-11-28T14:28:11.496Z,99447.16
2017-11-28T14:30:45.256Z,99457.38
2017-11-28T14:33:15.339Z,99459.05
2017-11-28T14:35:53.754Z,99455.77
2017-11-28T14:38:22.036Z,99463.55
2017-11-28T14:40:53.316Z,99456.67
2017-11-28T14:46:31.508Z,99462.40
2017-11-28T14:48:59.727Z,99464.91
2017-11-28T14:51:33.299Z,99457.30
2017-11-28T14:57:12.075Z,99456.92
2017-11-28T14:59:45.903Z,99449.36
2017-11-28T15:02:19.822Z,99456.23
2017-11-28T15:05:04.761Z,99453.64
2017-11-28T15:07:38.263Z,99456.69
2017-11-28T15:13:23.411Z,99455.09
2017-11-28T15:15:57.243Z,99459.00
2017-11-28T15:18:30.932Z,99456.53
2017-11-28T15:24:27.181Z,99457.80
2017-11-28T15:26:55.406Z,99464.31
2017-11-28T15:29:23.672Z,99456.70
2017-11-28T15:31:51.894Z,99458.34
2017-11-28T15:34:20.299Z,99452.37
2017-11-28T15:36:48.790Z,99454.55
2017-11-28T15:39:17.146Z,99449.91
2017-11-28T15:41:45.632Z,99450.41
2017-11-28T15:44:14.309Z,99458.56
2017-11-28T15:46:42.984Z,99454.81
2017-11-28T15:49:11.304Z,99466.30
2017-11-28T15:51:40.027Z,99459.95
2017-11-28T15:54:08.397Z,99462.55
2017-11-28T15:56:36.795Z,99459.22
2017-11-28T15:59:05.128Z,99460.13
2017-11-28T16:01:33.576Z,99461.40
2017-11-28T16:04:02.226Z,99470.86
2017-11-28T16:06:36.561Z,99463.66
2017-11-28T16:09:04.707Z,99470.90
2017-11-28T16:11:33.386Z,99467.20
2017-11-28T16:14:02.011Z,99475.63
2017-11-28T16:16:30.699Z,99470.54
2017-11-28T16:18:59.031Z,99471.89
2017-11-28T16:21:27.360Z,99476.17
2017-11-28T16:23:55.749Z,99478.02
2017-11-28T16:26:24.135Z,99472.51
2017-11-28T16:28:52.502Z,99479.30
2017-11-28T16:31:21.137Z,99459.48
2017-11-28T16:33:49.830Z,99469.22
2017-11-28T16:36:18.198Z,99473.45
2017-11-28T16:38:50.023Z,99467.61
2017-11-28T16:41:32.022Z,99476.17
2017-11-28T16:44:16.596Z,99473.62
2017-11-28T16:46:56.021Z,99482.67
2017-11-28T16:49:36.035Z,99489.50
2017-11-28T16:52:17.631Z,99492.45
2017-11-28T16:54:59.077Z,99489.54
2017-11-28T16:57:41.497Z,99491.30
2017-11-28T17:00:17.939Z,99497.02
2017-11-28T17:02:59.255Z,99498.70
2017-11-28T17:05:42.080Z,99495.86
2017-11-28T17:08:24.409Z,99500.51
2017-11-28T17:11:06.332Z,99497.59
2017-11-28T17:13:48.227Z,99498.41
2017-11-28T17:16:16.905Z,99512.97
2017-11-28T17:18:56.617Z,99505.77
2017-11-28T17:21:38.997Z,99511.36
2017-11-28T17:24:24.414Z,99515.63
2017-11-28T17:27:04.757Z,99515.30
2017-11-28T17:29:48.393Z,99516.70
2017-11-28T17:32:31.680Z,99522.62
2017-11-28T17:35:12.065Z,99521.83
2017-11-28T17:37:57.691Z,99521.83
2017-11-28T17:40:38.830Z,99517.64
2017-11-28T17:43:20.996Z,99520.69
2017-11-28T17:46:04.159Z,99521.17
2017-11-28T17:48:45.310Z,99523.34
2017-11-28T17:51:29.039Z,99525.56
2017-11-28T17:54:03.731Z,99520.13
2017-11-28T17:56:41.374Z,99524.81
2017-11-28T17:59:22.986Z,99524.45
2017-11-28T18:02:05.216Z,99518.03
2017-11-28T18:04:44.018Z,99510.47
2017-11-28T18:07:22.766Z,99518.61
2017-11-28T18:10:06.929Z,99521.61
2017-11-28T18:12:47.620Z,99517.87
2017-11-28T18:15:19.138Z,99522.96
2017-11-28T18:17:51.053Z,99518.31
2017-11-28T18:20:29.355Z,99516.30
2017-11-28T18:23:10.798Z,99515.89
2017-11-28T18:25:43.472Z,99515.55
2017-11-28T18:28:26.657Z,99519.05
2017-11-28T18:30:58.716Z,99533.84
2017-11-28T18:33:45.984Z,99527.80
2017-11-28T18:36:25.344Z,99530.42
2017-11-28T18:39:01.153Z,99524.06
2017-11-28T18:41:40.763Z,99534.25
2017-11-28T18:44:15.073Z,99529.60
2017-11-28T18:46:48.035Z,99532.11
2017-11-28T18:49:16.407Z,99536.84
2017-11-28T18:51:57.106Z,99537.28
2017-11-28T18:54:29.307Z,99537.37
2017-11-28T18:57:11.570Z,99541.61
2017-11-28T18:59:43.764Z,99536.44
2017-11-28T19:02:15.106Z,99530.14
2017-11-28T19:04:54.678Z,99536.97
2017-11-28T19:07:26.964Z,99540.29
2017-11-28T19:09:59.238Z,99529.77
2017-11-28T19:12:29.048Z,99537.00
2017-11-28T19:15:11.250Z,99530.63
2017-11-28T19:17:49.292Z,99541.61
2017-11-28T19:20:25.621Z,99540.45
2017-11-28T19:23:03.355Z,99541.65
2017-11-28T19:25:38.940Z,99542.14
2017-11-28T19:28:24.897Z,99542.92
2017-11-28T19:31:07.231Z,99550.97
2017-11-28T19:33:50.578Z,99555.20
2017-11-28T19:36:33.164Z,99548.02
2017-11-28T19:39:15.666Z,99553.19
2017-11-28T19:41:54.415Z,99552.70
2017-11-28T19:44:34.256Z,99553.93
2017-11-28T19:47:03.257Z,99554.42
2017-11-28T19:49:48.552Z,99545.95
2017-11-28T19:52:30.261Z,99543.03
2017-11-28T19:55:09.867Z,99548.51
2017-11-28T19:57:49.545Z,99547.64
2017-11-28T20:00:32.240Z,99550.68
2017-11-28T20:03:15.369Z,99551.50
2017-11-28T20:05:58.457Z,99549.48
2017-11-28T20:08:37.797Z,99558.40
2017-11-28T20:11:17.332Z,99553.83
2017-11-28T20:16:43.006Z,99564.09
2017-11-28T20:19:22.348Z,99562.33
2017-11-28T20:22:05.787Z,99568.03
2017-11-28T20:24:50.209Z,99570.05
2017-11-28T20:27:35.435Z,99560.27
2017-11-28T20:30:15.119Z,99569.64
2017-11-28T20:32:55.414Z,99565.00
2017-11-28T20:35:24.847Z,99573.34
2017-11-28T20:37:53.185Z,99564.13
2017-11-28T20:40:25.012Z,99564.47
2017-11-28T20:43:01.526Z,99561.14
2017-11-28T20:45:33.729Z,99558.66
2017-11-28T20:48:05.566Z,99562.16
2017-11-28T20:50:36.741Z,99556.23
2017-11-28T20:53:07.631Z,99563.88
2017-11-28T20:55:54.359Z,99564.33
2017-11-28T20:58:37.741Z,99561.74
2017-11-28T21:01:24.808Z,99554.96
2017-11-28T21:04:12.309Z,99559.68
2017-11-28T21:06:59.891Z,99566.54
2017-11-28T21:09:45.829Z,99561.81
2017-11-28T21:12:33.219Z,99570.50
2017-11-28T21:15:10.267Z,99565.83
2017-11-28T21:23:42.001Z,99572.72
2017-11-28T21:26:28.630Z,99582.16
2017-11-28T21:29:14.598Z,99571.97
2017-11-28T21:32:00.033Z,99573.66
2017-11-28T21:37:44.760Z,99577.97
2017-11-28T21:43:24.353Z,99579.39
2017-11-28T21:46:20.225Z,99582.05
2017-11-28T21:49:04.560Z,99582.80
2017-11-28T21:51:49.722Z,99580.70
2017-11-28T21:57:50.151Z,99586.31
2017-11-28T22:00:35.932Z,99593.05
2017-11-28T22:03:20.896Z,99595.64
2017-11-28T22:06:05.772Z,99597.51
2017-11-28T22:08:50.221Z,99600.39
2017-11-28T22:11:33.233Z,99600.91
2017-11-28T22:14:16.957Z,99602.64
2017-11-28T22:17:01.118Z,99601.41
2017-11-28T22:19:45.719Z,99608.11
2017-11-28T22:22:29.715Z,99609.75
2017-11-28T22:25:14.829Z,99612.78
2017-11-28T22:27:59.144Z,99613.23
2017-11-28T22:30:42.305Z,99608.89
2017-11-28T22:33:27.854Z,99617.43
2017-11-28T22:35:57.497Z,99625.67
2017-11-28T22:38:26.244Z,99623.50
2017-11-28T22:40:54.731Z,99623.46
2017-11-28T22:43:25.623Z,99619.67
2017-11-28T22:45:54.343Z,99617.99
2017-11-28T22:48:23.206Z,99628.73
2017-11-28T22:50:51.885Z,99623.53
2017-11-28T22:53:23.652Z,99626.56
2017-11-28T22:55:57.618Z,99620.64
2017-11-28T22:58:33.284Z,99624.39
2017-11-28T23:01:06.710Z,99625.63
2017-11-28T23:03:38.018Z,99625.22
2017-11-28T23:06:09.308Z,99626.53
2017-11-28T23:08:39.814Z,99630.77
2017-11-28T23:11:11.113Z,99635.52
2017-11-28T23:14:05.937Z,99630.80
2017-11-28T23:16:38.762Z,99632.93
2017-11-28T23:19:15.389Z,99633.41
2017-11-28T23:21:52.600Z,99635.09
2017-11-28T23:24:26.566Z,99632.93
2017-11-28T23:26:58.040Z,99632.03
2017-11-28T23:29:32.597Z,99633.69
2017-11-28T23:32:03.451Z,99624.39
2017-11-28T23:34:35.071Z,99627.31
2017-11-28T23:37:04.832Z,99630.31
2017-11-28T23:39:34.343Z,99627.31
2017-11-28T23:42:03.953Z,99629.45
2017-11-28T23:44:35.025Z,99625.63
2017-11-28T23:47:05.674Z,99627.31
2017-11-28T23:49:34.580Z,99622.23
2017-11-28T23:52:03.165Z,99627.69
2017-11-28T23:54:31.868Z,99621.81
2017-11-28T23:57:00.726Z,99624.39
2017-11-28T23:59:29.504Z,99626.05
